Terminal Aerodrome Forecast
Issued by NWS

Home | Current Version | Previous Version | Text Only | Print | Product List | Glossary On
Versions: 1 2 3 4 5 6 7 8 9 10 11 12 13 14 15 16 17 18 19 20 21
000
FTUS46 KPDT 221700
TAFBDN
TAF
KBDN 221720Z 2218/2318 27004KT P6SM BKN030 BKN060
     FM230100 VRB04KT P6SM BKN030 OVC040
     FM230800 21005KT P6SM OVC050=

USA.gov is the U.S. government's official web portal to all federal, state and local government web resources and services.